sensor_id;sensor_type;location;lat;lon;timestamp;temperature;humidity
13944;DHT22;7044;53.286;8.534;2022-08-18T00:02:02;20.70;42.30
13944;DHT22;7044;53.286;8.534;2022-08-18T00:04:30;20.60;49.50
13944;DHT22;7044;53.286;8.534;2022-08-18T00:06:57;20.60;48.50
13944;DHT22;7044;53.286;8.534;2022-08-18T00:09:24;20.40;54.50
13944;DHT22;7044;53.286;8.534;2022-08-18T00:11:51;20.50;60.80
13944;DHT22;7044;53.286;8.534;2022-08-18T00:14:19;20.50;61.00
13944;DHT22;7044;53.286;8.534;2022-08-18T00:16:49;19.80;66.20
13944;DHT22;7044;53.286;8.534;2022-08-18T00:19:16;20.40;64.10
13944;DHT22;7044;53.286;8.534;2022-08-18T00:24:10;20.30;64.00
13944;DHT22;7044;53.286;8.534;2022-08-18T00:26:37;20.10;67.90
13944;DHT22;7044;53.286;8.534;2022-08-18T00:29:04;20.10;82.90
13944;DHT22;7044;53.286;8.534;2022-08-18T00:31:31;20.00;79.40
13944;DHT22;7044;53.286;8.534;2022-08-18T00:33:59;20.30;83.30
13944;DHT22;7044;53.286;8.534;2022-08-18T00:36:27;20.10;81.20
13944;DHT22;7044;53.286;8.534;2022-08-18T00:38:56;20.00;80.80
13944;DHT22;7044;53.286;8.534;2022-08-18T00:41:22;19.90;83.50
13944;DHT22;7044;53.286;8.534;2022-08-18T00:43:51;19.90;85.00
13944;DHT22;7044;53.286;8.534;2022-08-18T00:46:21;19.80;87.10
13944;DHT22;7044;53.286;8.534;2022-08-18T00:48:48;19.70;88.70
13944;DHT22;7044;53.286;8.534;2022-08-18T00:51:21;19.90;92.30
13944;DHT22;7044;53.286;8.534;2022-08-18T00:53:55;19.80;91.60
13944;DHT22;7044;53.286;8.534;2022-08-18T00:56:26;19.90;90.80
13944;DHT22;7044;53.286;8.534;2022-08-18T00:58:57;19.80;90.90
13944;DHT22;7044;53.286;8.534;2022-08-18T01:01:28;19.80;92.80
13944;DHT22;7044;53.286;8.534;2022-08-18T01:03:59;19.80;93.60
13944;DHT22;7044;53.286;8.534;2022-08-18T01:06:34;19.50;96.70
13944;DHT22;7044;53.286;8.534;2022-08-18T01:09:02;19.80;96.20
13944;DHT22;7044;53.286;8.534;2022-08-18T01:11:29;19.80;96.50
13944;DHT22;7044;53.286;8.534;2022-08-18T01:13:57;20.00;96.70
13944;DHT22;7044;53.286;8.534;2022-08-18T01:16:24;19.90;96.10
13944;DHT22;7044;53.286;8.534;2022-08-18T01:19:09;19.90;95.70
13944;DHT22;7044;53.286;8.534;2022-08-18T01:22:01;20.00;96.30
13944;DHT22;7044;53.286;8.534;2022-08-18T01:24:35;19.80;94.30
13944;DHT22;7044;53.286;8.534;2022-08-18T01:27:20;19.80;94.30
13944;DHT22;7044;53.286;8.534;2022-08-18T01:29:49;19.90;94.70
13944;DHT22;7044;53.286;8.534;2022-08-18T01:32:19;19.90;94.10
13944;DHT22;7044;53.286;8.534;2022-08-18T01:34:48;19.70;92.10
13944;DHT22;7044;53.286;8.534;2022-08-18T01:37:17;19.60;91.30
13944;DHT22;7044;53.286;8.534;2022-08-18T01:39:46;19.60;90.70
13944;DHT22;7044;53.286;8.534;2022-08-18T01:42:15;19.40;91.50
13944;DHT22;7044;53.286;8.534;2022-08-18T01:44:42;19.50;89.10
13944;DHT22;7044;53.286;8.534;2022-08-18T01:47:10;19.50;89.60
13944;DHT22;7044;53.286;8.534;2022-08-18T01:49:38;19.50;85.20
13944;DHT22;7044;53.286;8.534;2022-08-18T01:52:07;19.50;86.00
13944;DHT22;7044;53.286;8.534;2022-08-18T01:54:34;19.50;87.70
13944;DHT22;7044;53.286;8.534;2022-08-18T01:57:03;19.80;93.00
13944;DHT22;7044;53.286;8.534;2022-08-18T01:59:30;19.60;90.70
13944;DHT22;7044;53.286;8.534;2022-08-18T02:02:00;19.70;92.20
13944;DHT22;7044;53.286;8.534;2022-08-18T02:04:29;19.00;93.10
13944;DHT22;7044;53.286;8.534;2022-08-18T02:06:58;19.80;93.80
13944;DHT22;7044;53.286;8.534;2022-08-18T02:09:25;19.80;93.70
13944;DHT22;7044;53.286;8.534;2022-08-18T02:11:52;19.90;94.10
13944;DHT22;7044;53.286;8.534;2022-08-18T02:14:20;19.80;93.20
13944;DHT22;7044;53.286;8.534;2022-08-18T02:16:47;19.60;95.60
13944;DHT22;7044;53.286;8.534;2022-08-18T02:19:14;19.80;94.60
13944;DHT22;7044;53.286;8.534;2022-08-18T02:21:41;19.80;95.70
13944;DHT22;7044;53.286;8.534;2022-08-18T02:24:07;19.90;96.70
13944;DHT22;7044;53.286;8.534;2022-08-18T02:26:34;19.90;97.70
13944;DHT22;7044;53.286;8.534;2022-08-18T02:29:01;20.00;98.10
13944;DHT22;7044;53.286;8.534;2022-08-18T02:31:29;19.90;98.40
13944;DHT22;7044;53.286;8.534;2022-08-18T02:33:56;20.00;98.70
13944;DHT22;7044;53.286;8.534;2022-08-18T02:36:23;20.00;98.50
13944;DHT22;7044;53.286;8.534;2022-08-18T02:38:50;20.00;98.50
13944;DHT22;7044;53.286;8.534;2022-08-18T02:41:17;20.00;98.10
13944;DHT22;7044;53.286;8.534;2022-08-18T02:43:44;20.00;98.70
13944;DHT22;7044;53.286;8.534;2022-08-18T02:46:13;19.80;98.70
13944;DHT22;7044;53.286;8.534;2022-08-18T02:48:41;20.00;97.90
13944;DHT22;7044;53.286;8.534;2022-08-18T02:51:11;20.10;99.90
13944;DHT22;7044;53.286;8.534;2022-08-18T02:53:38;20.00;98.50
13944;DHT22;7044;53.286;8.534;2022-08-18T02:56:09;20.10;98.90
13944;DHT22;7044;53.286;8.534;2022-08-18T02:58:51;20.10;98.90
13944;DHT22;7044;53.286;8.534;2022-08-18T03:01:19;20.00;98.40
13944;DHT22;7044;53.286;8.534;2022-08-18T03:03:48;19.80;99.70
13944;DHT22;7044;53.286;8.534;2022-08-18T03:06:16;20.00;98.50
13944;DHT22;7044;53.286;8.534;2022-08-18T03:08:44;19.60;99.90
13944;DHT22;7044;53.286;8.534;2022-08-18T03:11:13;20.10;99.00
13944;DHT22;7044;53.286;8.534;2022-08-18T03:13:41;20.10;98.80
13944;DHT22;7044;53.286;8.534;2022-08-18T03:16:07;20.10;98.20
13944;DHT22;7044;53.286;8.534;2022-08-18T03:18:34;20.10;98.50
13944;DHT22;7044;53.286;8.534;2022-08-18T03:21:05;20.10;98.60
13944;DHT22;7044;53.286;8.534;2022-08-18T03:23:32;20.10;99.90
13944;DHT22;7044;53.286;8.534;2022-08-18T03:25:59;20.10;99.30
13944;DHT22;7044;53.286;8.534;2022-08-18T03:28:26;20.20;99.20
13944;DHT22;7044;53.286;8.534;2022-08-18T03:30:53;20.40;99.90
13944;DHT22;7044;53.286;8.534;2022-08-18T03:33:20;20.30;99.60
13944;DHT22;7044;53.286;8.534;2022-08-18T03:35:47;20.30;99.90
13944;DHT22;7044;53.286;8.534;2022-08-18T03:38:15;19.40;99.20
13944;DHT22;7044;53.286;8.534;2022-08-18T03:40:42;20.40;99.90
13944;DHT22;7044;53.286;8.534;2022-08-18T03:43:09;20.40;99.90
13944;DHT22;7044;53.286;8.534;2022-08-18T03:45:36;20.50;99.90
13944;DHT22;7044;53.286;8.534;2022-08-18T03:48:03;20.50;99.90
13944;DHT22;7044;53.286;8.534;2022-08-18T03:50:31;20.50;99.90
13944;DHT22;7044;53.286;8.534;2022-08-18T03:52:58;20.50;99.90
13944;DHT22;7044;53.286;8.534;2022-08-18T03:55:27;20.50;99.90
13944;DHT22;7044;53.286;8.534;2022-08-18T03:57:57;20.60;99.90
13944;DHT22;7044;53.286;8.534;2022-08-18T04:02:54;20.60;99.90
13944;DHT22;7044;53.286;8.534;2022-08-18T04:05:21;21.20;99.90
13944;DHT22;7044;53.286;8.534;2022-08-18T04:07:48;20.50;99.90
13944;DHT22;7044;53.286;8.534;2022-08-18T04:10:15;20.60;99.90
13944;DHT22;7044;53.286;8.534;2022-08-18T04:12:43;20.70;99.90
13944;DHT22;7044;53.286;8.534;2022-08-18T04:15:10;20.70;99.90
13944;DHT22;7044;53.286;8.534;2022-08-18T04:17:37;20.70;99.90
13944;DHT22;7044;53.286;8.534;2022-08-18T04:20:04;20.70;99.90
13944;DHT22;7044;53.286;8.534;2022-08-18T04:22:32;20.70;99.90
13944;DHT22;7044;53.286;8.534;2022-08-18T04:24:59;20.70;99.90
13944;DHT22;7044;53.286;8.534;2022-08-18T04:27:27;20.60;99.90
13944;DHT22;7044;53.286;8.534;2022-08-18T04:29:55;20.90;99.90
13944;DHT22;7044;53.286;8.534;2022-08-18T04:34:49;20.80;99.90
13944;DHT22;7044;53.286;8.534;2022-08-18T04:37:17;20.50;99.90
13944;DHT22;7044;53.286;8.534;2022-08-18T04:39:43;20.70;99.90
13944;DHT22;7044;53.286;8.534;2022-08-18T04:42:11;19.90;99.90
13944;DHT22;7044;53.286;8.534;2022-08-18T04:44:37;20.40;99.90
13944;DHT22;7044;53.286;8.534;2022-08-18T04:47:06;20.70;99.90
13944;DHT22;7044;53.286;8.534;2022-08-18T04:49:34;20.60;99.90
13944;DHT22;7044;53.286;8.534;2022-08-18T04:54:45;20.60;99.90
13944;DHT22;7044;53.286;8.534;2022-08-18T04:57:15;20.40;99.90
13944;DHT22;7044;53.286;8.534;2022-08-18T04:59:46;20.50;99.90
13944;DHT22;7044;53.286;8.534;2022-08-18T05:02:15;20.50;99.90
13944;DHT22;7044;53.286;8.534;2022-08-18T05:04:43;20.70;99.90
13944;DHT22;7044;53.286;8.534;2022-08-18T05:07:13;20.40;99.90
13944;DHT22;7044;53.286;8.534;2022-08-18T05:09:41;20.40;99.90
13944;DHT22;7044;53.286;8.534;2022-08-18T05:12:09;20.40;99.90
13944;DHT22;7044;53.286;8.534;2022-08-18T05:14:37;20.40;99.90
13944;DHT22;7044;53.286;8.534;2022-08-18T05:17:05;20.40;99.90
13944;DHT22;7044;53.286;8.534;2022-08-18T05:19:33;20.40;99.90
13944;DHT22;7044;53.286;8.534;2022-08-18T05:22:00;20.40;99.90
13944;DHT22;7044;53.286;8.534;2022-08-18T05:24:29;20.40;99.90
13944;DHT22;7044;53.286;8.534;2022-08-18T05:26:57;20.40;99.90
13944;DHT22;7044;53.286;8.534;2022-08-18T05:29:24;21.20;99.90
13944;DHT22;7044;53.286;8.534;2022-08-18T05:31:52;20.40;99.90
13944;DHT22;7044;53.286;8.534;2022-08-18T05:34:20;20.40;99.90
13944;DHT22;7044;53.286;8.534;2022-08-18T05:37:02;20.40;99.90
13944;DHT22;7044;53.286;8.534;2022-08-18T05:39:38;20.40;99.90
13944;DHT22;7044;53.286;8.534;2022-08-18T05:42:07;20.40;99.90
13944;DHT22;7044;53.286;8.534;2022-08-18T05:44:40;20.40;99.90
13944;DHT22;7044;53.286;8.534;2022-08-18T05:47:11;20.40;99.90
13944;DHT22;7044;53.286;8.534;2022-08-18T05:49:40;20.40;99.90
13944;DHT22;7044;53.286;8.534;2022-08-18T05:52:14;20.40;99.90
13944;DHT22;7044;53.286;8.534;2022-08-18T05:54:46;20.40;99.90
13944;DHT22;7044;53.286;8.534;2022-08-18T05:57:35;20.20;99.90
13944;DHT22;7044;53.286;8.534;2022-08-18T06:00:04;20.40;99.90
13944;DHT22;7044;53.286;8.534;2022-08-18T06:02:37;20.50;99.90
13944;DHT22;7044;53.286;8.534;2022-08-18T06:05:07;20.50;99.90
13944;DHT22;7044;53.286;8.534;2022-08-18T06:07:42;20.50;99.90
13944;DHT22;7044;53.286;8.534;2022-08-18T06:10:12;20.50;99.90
13944;DHT22;7044;53.286;8.534;2022-08-18T06:12:42;20.50;99.90
13944;DHT22;7044;53.286;8.534;2022-08-18T06:15:13;20.60;99.90
13944;DHT22;7044;53.286;8.534;2022-08-18T06:18:07;20.60;99.90
13944;DHT22;7044;53.286;8.534;2022-08-18T06:20:44;20.60;99.90
13944;DHT22;7044;53.286;8.534;2022-08-18T06:23:24;20.70;99.90
13944;DHT22;7044;53.286;8.534;2022-08-18T06:26:05;20.70;99.90
13944;DHT22;7044;53.286;8.534;2022-08-18T06:28:44;20.70;99.90
13944;DHT22;7044;53.286;8.534;2022-08-18T06:31:17;20.80;99.90
13944;DHT22;7044;53.286;8.534;2022-08-18T06:33:54;21.00;99.90
13944;DHT22;7044;53.286;8.534;2022-08-18T06:36:32;20.90;99.90
13944;DHT22;7044;53.286;8.534;2022-08-18T06:39:05;20.90;99.90
13944;DHT22;7044;53.286;8.534;2022-08-18T06:41:37;20.90;99.90
13944;DHT22;7044;53.286;8.534;2022-08-18T06:44:07;21.30;99.90
13944;DHT22;7044;53.286;8.534;2022-08-18T06:46:43;20.90;99.90
13944;DHT22;7044;53.286;8.534;2022-08-18T06:49:27;20.90;99.90
13944;DHT22;7044;53.286;8.534;2022-08-18T06:51:56;21.00;99.90
13944;DHT22;7044;53.286;8.534;2022-08-18T06:54:29;21.00;99.90
13944;DHT22;7044;53.286;8.534;2022-08-18T06:56:57;21.00;99.90
13944;DHT22;7044;53.286;8.534;2022-08-18T06:59:26;21.00;99.90
13944;DHT22;7044;53.286;8.534;2022-08-18T07:01:57;21.00;99.90
13944;DHT22;7044;53.286;8.534;2022-08-18T07:04:37;21.10;99.90
13944;DHT22;7044;53.286;8.534;2022-08-18T07:07:15;21.00;99.90
13944;DHT22;7044;53.286;8.534;2022-08-18T07:09:46;21.00;99.90
13944;DHT22;7044;53.286;8.534;2022-08-18T07:12:20;21.00;99.90
13944;DHT22;7044;53.286;8.534;2022-08-18T07:14:49;21.10;99.90
13944;DHT22;7044;53.286;8.534;2022-08-18T07:17:22;21.10;99.90
13944;DHT22;7044;53.286;8.534;2022-08-18T07:20:09;21.20;99.90
13944;DHT22;7044;53.286;8.534;2022-08-18T07:22:54;21.50;99.90
13944;DHT22;7044;53.286;8.534;2022-08-18T07:25:28;22.40;99.90
13944;DHT22;7044;53.286;8.534;2022-08-18T07:27:55;21.40;99.90
13944;DHT22;7044;53.286;8.534;2022-08-18T07:30:29;21.30;99.90
13944;DHT22;7044;53.286;8.534;2022-08-18T07:33:05;21.50;99.90
13944;DHT22;7044;53.286;8.534;2022-08-18T07:35:47;21.20;99.90
13944;DHT22;7044;53.286;8.534;2022-08-18T07:38:20;21.30;99.90
13944;DHT22;7044;53.286;8.534;2022-08-18T07:40:54;21.20;99.90
13944;DHT22;7044;53.286;8.534;2022-08-18T07:43:27;21.30;99.90
13944;DHT22;7044;53.286;8.534;2022-08-18T07:46:02;21.30;99.90
13944;DHT22;7044;53.286;8.534;2022-08-18T07:48:31;21.30;99.50
13944;DHT22;7044;53.286;8.534;2022-08-18T07:51:05;21.20;99.60
13944;DHT22;7044;53.286;8.534;2022-08-18T07:53:46;21.30;99.90
13944;DHT22;7044;53.286;8.534;2022-08-18T07:56:22;21.40;99.90
13944;DHT22;7044;53.286;8.534;2022-08-18T07:58:55;21.40;99.90
13944;DHT22;7044;53.286;8.534;2022-08-18T08:01:29;21.50;99.10
13944;DHT22;7044;53.286;8.534;2022-08-18T08:04:09;21.40;98.70
13944;DHT22;7044;53.286;8.534;2022-08-18T08:06:41;21.60;98.30
13944;DHT22;7044;53.286;8.534;2022-08-18T08:09:19;21.70;97.90
13944;DHT22;7044;53.286;8.534;2022-08-18T08:11:55;21.70;98.20
13944;DHT22;7044;53.286;8.534;2022-08-18T08:14:34;21.60;97.20
13944;DHT22;7044;53.286;8.534;2022-08-18T08:17:11;21.80;96.40
13944;DHT22;7044;53.286;8.534;2022-08-18T08:20:04;21.90;96.00
13944;DHT22;7044;53.286;8.534;2022-08-18T08:22:38;22.20;94.50
13944;DHT22;7044;53.286;8.534;2022-08-18T08:25:10;21.90;92.90
13944;DHT22;7044;53.286;8.534;2022-08-18T08:27:54;21.90;91.70
13944;DHT22;7044;53.286;8.534;2022-08-18T08:30:25;21.80;91.00
13944;DHT22;7044;53.286;8.534;2022-08-18T08:33:03;21.90;92.00
13944;DHT22;7044;53.286;8.534;2022-08-18T08:35:36;22.00;90.90
13944;DHT22;7044;53.286;8.534;2022-08-18T08:38:09;21.30;90.80
13944;DHT22;7044;53.286;8.534;2022-08-18T08:40:45;22.00;90.00
13944;DHT22;7044;53.286;8.534;2022-08-18T08:43:16;22.10;90.10
13944;DHT22;7044;53.286;8.534;2022-08-18T08:45:49;22.10;90.70
13944;DHT22;7044;53.286;8.534;2022-08-18T08:48:21;22.10;84.90
13944;DHT22;7044;53.286;8.534;2022-08-18T08:50:53;22.00;87.80
13944;DHT22;7044;53.286;8.534;2022-08-18T08:53:23;22.10;87.20
13944;DHT22;7044;53.286;8.534;2022-08-18T08:55:55;22.00;83.70
13944;DHT22;7044;53.286;8.534;2022-08-18T08:58:28;22.00;88.50
13944;DHT22;7044;53.286;8.534;2022-08-18T09:00:58;22.00;88.10
13944;DHT22;7044;53.286;8.534;2022-08-18T09:03:33;22.00;88.30
13944;DHT22;7044;53.286;8.534;2022-08-18T09:06:13;22.30;89.00
13944;DHT22;7044;53.286;8.534;2022-08-18T09:09:00;22.40;87.50
13944;DHT22;7044;53.286;8.534;2022-08-18T09:14:59;22.60;87.10
13944;DHT22;7044;53.286;8.534;2022-08-18T09:17:48;22.40;81.00
13944;DHT22;7044;53.286;8.534;2022-08-18T09:20:47;22.40;79.10
13944;DHT22;7044;53.286;8.534;2022-08-18T09:23:18;22.60;66.50
13944;DHT22;7044;53.286;8.534;2022-08-18T09:25:49;22.60;65.10
13944;DHT22;7044;53.286;8.534;2022-08-18T09:28:18;22.70;65.80
13944;DHT22;7044;53.286;8.534;2022-08-18T09:33:50;22.70;53.20
13944;DHT22;7044;53.286;8.534;2022-08-18T09:36:32;22.50;61.20
13944;DHT22;7044;53.286;8.534;2022-08-18T09:39:11;22.20;81.10
13944;DHT22;7044;53.286;8.534;2022-08-18T09:42:01;22.20;91.10
13944;DHT22;7044;53.286;8.534;2022-08-18T09:47:10;22.10;94.50
13944;DHT22;7044;53.286;8.534;2022-08-18T09:49:49;21.90;92.50
13944;DHT22;7044;53.286;8.534;2022-08-18T09:55:51;22.00;94.10
13944;DHT22;7044;53.286;8.534;2022-08-18T09:58:46;22.50;91.80
13944;DHT22;7044;53.286;8.534;2022-08-18T10:01:38;22.60;81.90
13944;DHT22;7044;53.286;8.534;2022-08-18T10:04:28;24.50;59.20
13944;DHT22;7044;53.286;8.534;2022-08-18T10:07:15;23.00;57.70
13944;DHT22;7044;53.286;8.534;2022-08-18T10:09:49;23.10;52.90
13944;DHT22;7044;53.286;8.534;2022-08-18T10:12:41;23.30;45.30
13944;DHT22;7044;53.286;8.534;2022-08-18T10:15:39;23.20;34.70
13944;DHT22;7044;53.286;8.534;2022-08-18T10:18:29;23.10;34.40
13944;DHT22;7044;53.286;8.534;2022-08-18T10:21:08;23.10;34.70
13944;DHT22;7044;53.286;8.534;2022-08-18T10:23:53;23.00;39.10
13944;DHT22;7044;53.286;8.534;2022-08-18T10:26:57;23.20;43.10
13944;DHT22;7044;53.286;8.534;2022-08-18T10:29:54;23.00;38.80
13944;DHT22;7044;53.286;8.534;2022-08-18T10:32:43;22.00;43.90
13944;DHT22;7044;53.286;8.534;2022-08-18T10:38:42;22.80;44.00
13944;DHT22;7044;53.286;8.534;2022-08-18T10:41:23;22.70;47.80
13944;DHT22;7044;53.286;8.534;2022-08-18T10:43:54;22.70;50.20
13944;DHT22;7044;53.286;8.534;2022-08-18T10:46:25;20.90;50.80
13944;DHT22;7044;53.286;8.534;2022-08-18T10:49:18;22.80;49.70
13944;DHT22;7044;53.286;8.534;2022-08-18T10:52:01;22.90;51.10
13944;DHT22;7044;53.286;8.534;2022-08-18T10:54:39;22.70;32.80
13944;DHT22;7044;53.286;8.534;2022-08-18T10:57:15;23.00;28.60
13944;DHT22;7044;53.286;8.534;2022-08-18T10:59:48;22.90;37.00
13944;DHT22;7044;53.286;8.534;2022-08-18T11:02:37;22.90;35.40
13944;DHT22;7044;53.286;8.534;2022-08-18T11:05:11;22.80;47.50
13944;DHT22;7044;53.286;8.534;2022-08-18T11:07:39;22.90;44.60
13944;DHT22;7044;53.286;8.534;2022-08-18T11:10:19;22.80;37.90
13944;DHT22;7044;53.286;8.534;2022-08-18T11:12:58;22.60;42.10
13944;DHT22;7044;53.286;8.534;2022-08-18T11:15:35;22.70;43.20
13944;DHT22;7044;53.286;8.534;2022-08-18T11:18:20;22.30;44.20
13944;DHT22;7044;53.286;8.534;2022-08-18T11:20:53;22.60;43.60
13944;DHT22;7044;53.286;8.534;2022-08-18T11:23:21;22.60;42.80
13944;DHT22;7044;53.286;8.534;2022-08-18T11:25:49;22.60;47.50
13944;DHT22;7044;53.286;8.534;2022-08-18T11:28:17;22.30;51.60
13944;DHT22;7044;53.286;8.534;2022-08-18T11:30:47;22.60;49.60
13944;DHT22;7044;53.286;8.534;2022-08-18T11:33:18;22.60;47.60
13944;DHT22;7044;53.286;8.534;2022-08-18T11:35:49;22.60;50.20
13944;DHT22;7044;53.286;8.534;2022-08-18T11:38:17;22.60;50.00
13944;DHT22;7044;53.286;8.534;2022-08-18T11:40:46;22.80;48.50
13944;DHT22;7044;53.286;8.534;2022-08-18T11:43:23;22.80;46.00
13944;DHT22;7044;53.286;8.534;2022-08-18T11:45:53;23.00;56.30
13944;DHT22;7044;53.286;8.534;2022-08-18T11:48:31;24.20;48.80
13944;DHT22;7044;53.286;8.534;2022-08-18T11:51:01;22.80;40.20
13944;DHT22;7044;53.286;8.534;2022-08-18T11:53:38;21.60;38.10
13944;DHT22;7044;53.286;8.534;2022-08-18T11:56:15;23.00;34.50
13944;DHT22;7044;53.286;8.534;2022-08-18T11:58:47;22.80;32.70
13944;DHT22;7044;53.286;8.534;2022-08-18T12:01:32;22.90;25.20
13944;DHT22;7044;53.286;8.534;2022-08-18T12:04:15;25.00;28.20
13944;DHT22;7044;53.286;8.534;2022-08-18T12:06:55;23.00;31.80
13944;DHT22;7044;53.286;8.534;2022-08-18T12:09:32;23.00;32.70
13944;DHT22;7044;53.286;8.534;2022-08-18T12:12:02;23.10;38.30
13944;DHT22;7044;53.286;8.534;2022-08-18T12:14:33;23.00;39.30
13944;DHT22;7044;53.286;8.534;2022-08-18T12:17:01;23.10;45.30
13944;DHT22;7044;53.286;8.534;2022-08-18T12:21:59;22.70;45.50
13944;DHT22;7044;53.286;8.534;2022-08-18T12:24:31;22.80;42.80
13944;DHT22;7044;53.286;8.534;2022-08-18T12:26:59;22.80;41.00
13944;DHT22;7044;53.286;8.534;2022-08-18T12:29:26;22.70;33.20
13944;DHT22;7044;53.286;8.534;2022-08-18T12:31:54;22.90;31.10
13944;DHT22;7044;53.286;8.534;2022-08-18T12:34:23;23.00;28.30
13944;DHT22;7044;53.286;8.534;2022-08-18T12:36:53;23.00;26.10
13944;DHT22;7044;53.286;8.534;2022-08-18T12:39:20;23.10;26.10
13944;DHT22;7044;53.286;8.534;2022-08-18T12:41:47;23.10;17.70
13944;DHT22;7044;53.286;8.534;2022-08-18T12:44:14;23.20;15.80
13944;DHT22;7044;53.286;8.534;2022-08-18T12:46:41;23.20;5.90
13944;DHT22;7044;53.286;8.534;2022-08-18T12:49:14;23.10;9.00
13944;DHT22;7044;53.286;8.534;2022-08-18T12:51:41;23.10;12.30
13944;DHT22;7044;53.286;8.534;2022-08-18T12:56:36;23.10;4.80
13944;DHT22;7044;53.286;8.534;2022-08-18T12:59:05;23.20;16.90
13944;DHT22;7044;53.286;8.534;2022-08-18T13:01:32;23.50;22.80
13944;DHT22;7044;53.286;8.534;2022-08-18T13:03:59;23.60;20.80
13944;DHT22;7044;53.286;8.534;2022-08-18T13:06:28;22.80;25.20
13944;DHT22;7044;53.286;8.534;2022-08-18T13:08:55;22.90;27.70
13944;DHT22;7044;53.286;8.534;2022-08-18T13:11:22;22.50;28.80
13944;DHT22;7044;53.286;8.534;2022-08-18T13:13:51;22.50;34.20
13944;DHT22;7044;53.286;8.534;2022-08-18T13:16:18;22.60;35.60
13944;DHT22;7044;53.286;8.534;2022-08-18T13:18:45;22.60;39.50
13944;DHT22;7044;53.286;8.534;2022-08-18T13:21:14;22.70;35.00
13944;DHT22;7044;53.286;8.534;2022-08-18T13:23:46;22.60;39.30
13944;DHT22;7044;53.286;8.534;2022-08-18T13:26:18;22.50;39.80
13944;DHT22;7044;53.286;8.534;2022-08-18T13:33:41;22.40;38.60
13944;DHT22;7044;53.286;8.534;2022-08-18T13:36:08;22.30;43.70
13944;DHT22;7044;53.286;8.534;2022-08-18T13:38:35;22.70;42.50
13944;DHT22;7044;53.286;8.534;2022-08-18T13:41:06;22.00;45.90
13944;DHT22;7044;53.286;8.534;2022-08-18T13:43:36;22.00;46.40
13944;DHT22;7044;53.286;8.534;2022-08-18T13:48:31;22.00;49.70
13944;DHT22;7044;53.286;8.534;2022-08-18T13:50:59;22.70;56.60
13944;DHT22;7044;53.286;8.534;2022-08-18T13:53:27;22.50;52.90
13944;DHT22;7044;53.286;8.534;2022-08-18T13:55:56;22.50;40.10
13944;DHT22;7044;53.286;8.534;2022-08-18T13:58:25;22.10;39.00
13944;DHT22;7044;53.286;8.534;2022-08-18T14:00:55;22.10;43.80
13944;DHT22;7044;53.286;8.534;2022-08-18T14:03:22;22.40;38.80
13944;DHT22;7044;53.286;8.534;2022-08-18T14:05:49;22.40;46.80
13944;DHT22;7044;53.286;8.534;2022-08-18T14:08:17;22.50;41.40
13944;DHT22;7044;53.286;8.534;2022-08-18T14:10:44;22.50;44.10
13944;DHT22;7044;53.286;8.534;2022-08-18T14:13:12;22.40;35.30
13944;DHT22;7044;53.286;8.534;2022-08-18T14:15:42;22.50;33.90
13944;DHT22;7044;53.286;8.534;2022-08-18T14:18:10;22.50;32.70
13944;DHT22;7044;53.286;8.534;2022-08-18T14:20:37;22.60;34.70
13944;DHT22;7044;53.286;8.534;2022-08-18T14:23:21;22.60;33.20
13944;DHT22;7044;53.286;8.534;2022-08-18T14:26:05;22.50;29.20
13944;DHT22;7044;53.286;8.534;2022-08-18T14:31:18;22.60;27.10
13944;DHT22;7044;53.286;8.534;2022-08-18T14:33:45;22.50;24.00
13944;DHT22;7044;53.286;8.534;2022-08-18T14:36:13;22.30;25.20
13944;DHT22;7044;53.286;8.534;2022-08-18T14:38:40;22.30;29.20
13944;DHT22;7044;53.286;8.534;2022-08-18T14:41:10;22.00;31.30
13944;DHT22;7044;53.286;8.534;2022-08-18T14:43:37;22.00;35.30
13944;DHT22;7044;53.286;8.534;2022-08-18T14:46:04;22.10;31.60
13944;DHT22;7044;53.286;8.534;2022-08-18T14:48:33;22.00;35.80
13944;DHT22;7044;53.286;8.534;2022-08-18T14:51:01;22.00;33.80
13944;DHT22;7044;53.286;8.534;2022-08-18T14:53:30;22.00;41.90
13944;DHT22;7044;53.286;8.534;2022-08-18T14:55:59;21.90;40.30
13944;DHT22;7044;53.286;8.534;2022-08-18T14:58:29;21.90;43.00
13944;DHT22;7044;53.286;8.534;2022-08-18T15:00:58;22.00;41.30
13944;DHT22;7044;53.286;8.534;2022-08-18T15:03:28;22.00;39.00
13944;DHT22;7044;53.286;8.534;2022-08-18T15:05:59;22.00;42.70
13944;DHT22;7044;53.286;8.534;2022-08-18T15:10:54;21.00;36.80
13944;DHT22;7044;53.286;8.534;2022-08-18T15:13:22;21.90;34.00
13944;DHT22;7044;53.286;8.534;2022-08-18T15:15:49;21.80;38.70
13944;DHT22;7044;53.286;8.534;2022-08-18T15:18:16;22.20;38.90
13944;DHT22;7044;53.286;8.534;2022-08-18T15:20:43;22.00;46.90
13944;DHT22;7044;53.286;8.534;2022-08-18T15:23:29;22.00;40.40
13944;DHT22;7044;53.286;8.534;2022-08-18T15:26:17;21.90;44.90
13944;DHT22;7044;53.286;8.534;2022-08-18T15:28:46;22.20;43.10
13944;DHT22;7044;53.286;8.534;2022-08-18T15:31:14;22.10;27.60
13944;DHT22;7044;53.286;8.534;2022-08-18T15:33:41;22.00;29.60
13944;DHT22;7044;53.286;8.534;2022-08-18T15:46:16;21.80;42.50
13944;DHT22;7044;53.286;8.534;2022-08-18T15:51:16;21.80;40.10
13944;DHT22;7044;53.286;8.534;2022-08-18T15:56:12;22.20;36.30
13944;DHT22;7044;53.286;8.534;2022-08-18T16:01:08;21.50;37.70
13944;DHT22;7044;53.286;8.534;2022-08-18T16:03:37;21.50;39.00
13944;DHT22;7044;53.286;8.534;2022-08-18T16:06:05;20.40;38.20
13944;DHT22;7044;53.286;8.534;2022-08-18T16:08:33;21.50;36.70
13944;DHT22;7044;53.286;8.534;2022-08-18T16:11:06;22.00;43.10
13944;DHT22;7044;53.286;8.534;2022-08-18T16:17:02;21.40;49.20
13944;DHT22;7044;53.286;8.534;2022-08-18T16:19:28;21.50;47.80
13944;DHT22;7044;53.286;8.534;2022-08-18T16:21:55;21.40;43.80
13944;DHT22;7044;53.286;8.534;2022-08-18T16:24:22;21.40;42.20
13944;DHT22;7044;53.286;8.534;2022-08-18T16:26:49;21.00;40.50
13944;DHT22;7044;53.286;8.534;2022-08-18T16:29:16;21.30;39.10
13944;DHT22;7044;53.286;8.534;2022-08-18T16:31:43;21.20;45.30
13944;DHT22;7044;53.286;8.534;2022-08-18T16:34:12;21.20;47.40
13944;DHT22;7044;53.286;8.534;2022-08-18T16:36:39;21.20;48.20
13944;DHT22;7044;53.286;8.534;2022-08-18T16:39:05;21.10;51.60
13944;DHT22;7044;53.286;8.534;2022-08-18T16:44:00;21.20;52.40
13944;DHT22;7044;53.286;8.534;2022-08-18T16:49:03;19.30;52.90
13944;DHT22;7044;53.286;8.534;2022-08-18T16:51:34;21.00;50.50
13944;DHT22;7044;53.286;8.534;2022-08-18T16:54:01;17.70;49.60
13944;DHT22;7044;53.286;8.534;2022-08-18T16:56:31;20.80;50.60
13944;DHT22;7044;53.286;8.534;2022-08-18T16:59:00;22.50;54.80
13944;DHT22;7044;53.286;8.534;2022-08-18T17:01:46;20.90;57.50
13944;DHT22;7044;53.286;8.534;2022-08-18T17:04:32;20.60;55.20
13944;DHT22;7044;53.286;8.534;2022-08-18T17:07:04;20.60;56.50
13944;DHT22;7044;53.286;8.534;2022-08-18T17:09:32;20.40;55.00
13944;DHT22;7044;53.286;8.534;2022-08-18T17:11:59;20.70;54.90
13944;DHT22;7044;53.286;8.534;2022-08-18T17:14:28;20.70;53.50
13944;DHT22;7044;53.286;8.534;2022-08-18T17:16:56;20.70;58.00
13944;DHT22;7044;53.286;8.534;2022-08-18T17:19:26;20.70;56.90
13944;DHT22;7044;53.286;8.534;2022-08-18T17:21:54;20.40;55.60
13944;DHT22;7044;53.286;8.534;2022-08-18T17:24:23;20.70;51.10
13944;DHT22;7044;53.286;8.534;2022-08-18T17:26:54;20.70;48.60